createdAt,value
2022-08-07T00:01:12.501Z,100892.34
2022-08-07T00:03:55.191Z,100886.56
2022-08-07T00:06:29.450Z,100884.56
2022-08-07T00:09:16.866Z,100885.97
2022-08-07T00:11:54.252Z,100884.84
2022-08-07T00:14:29.986Z,100877.13
2022-08-07T00:16:58.852Z,100876.53
2022-08-07T00:19:34.121Z,100882.72
2022-08-07T00:22:30.796Z,100878.59
2022-08-07T00:25:04.285Z,100880.28
2022-08-07T00:27:35.790Z,100875.78
2022-08-07T00:30:26.309Z,100863.28
2022-08-07T00:32:56.478Z,100866.59
2022-08-07T00:35:24.090Z,100866.78
2022-08-07T00:37:51.771Z,100869.06
2022-08-07T00:40:39.272Z,100873.88
2022-08-07T00:43:09.639Z,100867.19
2022-08-07T00:45:38.263Z,100863.25
2022-08-07T00:48:10.072Z,100869.16
2022-08-07T00:50:46.273Z,100866.03
2022-08-07T00:53:20.145Z,100863.72
2022-08-07T00:56:02.290Z,100858.69
2022-08-07T00:58:31.569Z,100854.56
2022-08-07T01:00:59.283Z,100866.31
2022-08-07T01:03:56.150Z,100856.78
2022-08-07T01:06:15.798Z,100863.31
2022-08-07T01:08:53.339Z,100860.66
2022-08-07T01:12:24.006Z,100858.19
2022-08-07T01:14:09.780Z,100852.97
2022-08-07T01:16:38.219Z,100851.38
2022-08-07T01:19:10.830Z,100855.97
2022-08-07T01:21:46.607Z,100856.16
2022-08-07T01:24:18.684Z,100851.81
2022-08-07T01:26:52.161Z,100858.09
2022-08-07T01:29:20.298Z,100854.69
2022-08-07T01:31:49.777Z,100853.94
2022-08-07T01:34:18.917Z,100841.97
2022-08-07T01:36:51.447Z,100845.09
2022-08-07T01:39:25.505Z,100845.38
2022-08-07T01:42:38.231Z,100843.91
2022-08-07T01:44:55.660Z,100839.81
2022-08-07T01:48:19.301Z,100846.31
2022-08-07T01:50:11.510Z,100847.69
2022-08-07T01:52:49.319Z,100844.28
2022-08-07T01:55:22.522Z,100840.00
2022-08-07T01:58:05.437Z,100850.03
2022-08-07T02:00:34.974Z,100851.97
2022-08-07T02:03:21.993Z,100850.25
2022-08-07T02:06:01.166Z,100845.88
2022-08-07T02:08:29.003Z,100854.06
2022-08-07T02:10:58.764Z,100843.63
2022-08-07T02:13:47.012Z,100843.72
2022-08-07T02:16:14.234Z,100848.31
2022-08-07T02:18:47.263Z,100842.91
2022-08-07T02:21:15.991Z,100843.81
2022-08-07T02:23:44.734Z,100842.13
2022-08-07T02:26:32.716Z,100840.41
2022-08-07T02:29:00.251Z,100836.78
2022-08-07T02:31:28.271Z,100829.75
2022-08-07T02:34:03.170Z,100837.88
2022-08-07T02:36:32.795Z,100841.59
2022-08-07T02:39:00.996Z,100832.09
2022-08-07T02:41:33.397Z,100828.78
2022-08-07T02:44:05.019Z,100832.50
2022-08-07T02:46:32.863Z,100829.00
2022-08-07T02:49:03.357Z,100830.78
2022-08-07T02:51:42.443Z,100826.41
2022-08-07T02:54:17.720Z,100826.41
2022-08-07T02:56:45.965Z,100825.69
2022-08-07T02:59:14.741Z,100826.50
2022-08-07T03:01:42.529Z,100827.59
2022-08-07T03:04:15.098Z,100820.75
2022-08-07T03:06:44.863Z,100831.63
2022-08-07T03:09:13.807Z,100825.53
2022-08-07T03:11:51.667Z,100825.75
2022-08-07T03:14:25.406Z,100826.88
2022-08-07T03:16:53.504Z,100835.97
2022-08-07T03:19:21.588Z,100835.19
2022-08-07T03:21:50.914Z,100835.41
2022-08-07T03:24:26.906Z,100828.38
2022-08-07T03:26:59.098Z,100833.88
2022-08-07T03:29:27.740Z,100832.41
2022-08-07T03:31:55.565Z,100835.16
2022-08-07T03:34:23.519Z,100835.25
2022-08-07T03:36:55.119Z,100828.34
2022-08-07T03:39:59.719Z,100823.19
2022-08-07T03:42:12.977Z,100822.44
2022-08-07T03:44:40.559Z,100823.50
2022-08-07T03:47:14.243Z,100818.47
2022-08-07T03:49:48.007Z,100824.00
2022-08-07T03:52:22.942Z,100827.06
2022-08-07T03:54:57.416Z,100828.97
2022-08-07T03:58:08.707Z,100822.88
2022-08-07T04:00:29.131Z,100823.00
2022-08-07T04:03:04.430Z,100816.81
2022-08-07T04:05:40.509Z,100820.34
2022-08-07T04:08:10.148Z,100822.88
2022-08-07T04:10:39.221Z,100825.44
2022-08-07T04:13:15.085Z,100816.50
2022-08-07T04:15:43.795Z,100807.56
2022-08-07T04:18:56.177Z,100812.13
2022-08-07T04:21:01.453Z,100812.22
2022-08-07T04:23:43.370Z,100820.22
2022-08-07T04:26:21.685Z,100819.75
2022-08-07T04:28:49.749Z,100816.19
2022-08-07T04:31:19.634Z,100817.16
2022-08-07T04:33:55.062Z,100825.38
2022-08-07T04:36:26.287Z,100821.00
2022-08-07T04:38:54.047Z,100821.00
2022-08-07T04:41:22.263Z,100823.44
2022-08-07T04:44:12.976Z,100821.34
2022-08-07T04:46:59.691Z,100826.91
2022-08-07T04:49:26.002Z,100822.78
2022-08-07T04:51:53.717Z,100828.56
2022-08-07T04:54:22.621Z,100825.41
2022-08-07T04:58:11.332Z,100819.25
2022-08-07T05:00:12.025Z,100832.72
2022-08-07T05:02:33.939Z,100824.81
2022-08-07T05:05:01.813Z,100828.69
2022-08-07T05:07:44.203Z,100823.59
2022-08-07T05:10:16.803Z,100821.25
2022-08-07T05:12:53.133Z,100814.31
2022-08-07T05:15:24.069Z,100818.94
2022-08-07T05:17:55.181Z,100813.59
2022-08-07T05:20:25.692Z,100817.09
2022-08-07T05:22:53.462Z,100819.53
2022-08-07T05:25:25.892Z,100820.34
2022-08-07T05:28:19.985Z,100827.06
2022-08-07T05:30:50.759Z,100825.78
2022-08-07T05:33:21.369Z,100833.66
2022-08-07T05:35:49.288Z,100836.16
2022-08-07T05:39:00.462Z,100832.69
2022-08-07T05:41:12.377Z,100823.91
2022-08-07T05:44:08.493Z,100828.53
2022-08-07T05:46:31.057Z,100829.06
2022-08-07T05:48:59.486Z,100830.47
2022-08-07T05:51:31.622Z,100827.44
2022-08-07T05:54:13.024Z,100828.09
2022-08-07T05:56:51.290Z,100827.72
2022-08-07T05:59:19.765Z,100834.78
2022-08-07T06:01:48.747Z,100835.38
2022-08-07T06:04:17.434Z,100837.63
2022-08-07T06:06:46.160Z,100842.34
2022-08-07T06:09:15.273Z,100823.03
2022-08-07T06:11:43.839Z,100831.25
2022-08-07T06:14:20.934Z,100826.47
2022-08-07T06:16:50.725Z,100822.38
2022-08-07T06:19:57.966Z,100831.56
2022-08-07T06:22:22.792Z,100834.63
2022-08-07T06:24:57.756Z,100829.78
2022-08-07T06:27:44.058Z,100835.53
2022-08-07T06:30:24.211Z,100826.28
2022-08-07T06:33:01.502Z,100831.13
2022-08-07T06:35:38.923Z,100828.25
2022-08-07T06:38:19.306Z,100825.56
2022-08-07T06:40:48.437Z,100822.22
2022-08-07T06:43:21.638Z,100815.31
2022-08-07T06:45:50.143Z,100819.75
2022-08-07T06:48:25.070Z,100819.47
2022-08-07T06:50:53.355Z,100807.88
2022-08-07T06:55:27.766Z,100812.25
2022-08-07T06:56:15.173Z,100816.09
2022-08-07T07:00:10.529Z,100806.75
2022-08-07T07:01:33.211Z,100806.13
2022-08-07T07:04:28.318Z,100802.22
2022-08-07T07:07:01.247Z,100802.59
2022-08-07T07:09:31.322Z,100801.28
2022-08-07T07:12:08.495Z,100816.13
2022-08-07T07:14:44.383Z,100805.44
2022-08-07T07:17:16.239Z,100800.25
2022-08-07T07:19:56.959Z,100805.19
2022-08-07T07:22:36.236Z,100801.44
2022-08-07T07:26:31.064Z,100803.28
2022-08-07T07:28:03.353Z,100797.38
2022-08-07T07:30:38.734Z,100787.34
2022-08-07T07:33:07.942Z,100794.22
2022-08-07T07:35:50.677Z,100791.28
2022-08-07T07:38:23.444Z,100783.66
2022-08-07T07:40:51.607Z,100794.88
2022-08-07T07:43:27.772Z,100796.53
2022-08-07T07:46:37.488Z,100792.09
2022-08-07T07:48:59.817Z,100789.84
2022-08-07T07:51:27.799Z,100781.13
2022-08-07T07:53:55.594Z,100778.69
2022-08-07T07:56:30.617Z,100777.53
2022-08-07T07:58:58.617Z,100774.53
2022-08-07T08:02:05.146Z,100769.50
2022-08-07T08:04:15.346Z,100772.59
2022-08-07T08:06:48.097Z,100764.84
2022-08-07T08:09:19.858Z,100757.94
2022-08-07T08:12:02.138Z,100760.00
2022-08-07T08:14:31.407Z,100761.84
2022-08-07T08:17:56.181Z,100755.22
2022-08-07T08:20:18.613Z,100759.81
2022-08-07T08:22:56.302Z,100759.28
2022-08-07T08:25:49.075Z,100756.41
2022-08-07T08:28:23.945Z,100757.03
2022-08-07T08:31:05.284Z,100761.41
2022-08-07T08:33:34.442Z,100755.25
2022-08-07T08:36:02.183Z,100754.53
2022-08-07T08:38:34.271Z,100758.38
2022-08-07T08:41:06.223Z,100750.53
2022-08-07T08:43:42.339Z,100743.19
2022-08-07T08:46:10.627Z,100736.31
2022-08-07T08:48:38.805Z,100739.28
2022-08-07T08:51:14.753Z,100742.44
2022-08-07T08:53:54.131Z,100741.25
2022-08-07T08:56:24.698Z,100738.16
2022-08-07T08:58:54.443Z,100737.91
2022-08-07T09:01:22.772Z,100733.88
2022-08-07T09:03:57.558Z,100734.66
2022-08-07T09:06:26.151Z,100735.22
2022-08-07T09:08:58.031Z,100734.47
2022-08-07T09:11:50.477Z,100730.84
2022-08-07T09:14:13.797Z,100727.00
2022-08-07T09:16:42.041Z,100723.81
2022-08-07T09:19:51.241Z,100719.78
2022-08-07T09:22:39.990Z,100716.31
2022-08-07T09:25:00.612Z,100717.53
2022-08-07T09:27:38.341Z,100726.97
2022-08-07T09:30:27.971Z,100723.91
2022-08-07T09:32:58.539Z,100703.38
2022-08-07T09:36:04.973Z,100709.41
2022-08-07T09:38:23.340Z,100712.06
2022-08-07T09:40:51.561Z,100708.78
2022-08-07T09:43:19.467Z,100711.06
2022-08-07T09:47:42.628Z,100705.44
2022-08-07T09:50:03.659Z,100704.88
2022-08-07T09:52:15.852Z,100706.59
2022-08-07T09:54:30.286Z,100688.69
2022-08-07T09:56:58.080Z,100692.28
2022-08-07T09:59:31.077Z,100686.53
2022-08-07T10:02:12.036Z,100687.22
2022-08-07T10:04:45.929Z,100692.44
2022-08-07T10:07:24.582Z,100694.53
2022-08-07T10:10:03.458Z,100685.09
2022-08-07T10:12:31.244Z,100694.16
2022-08-07T10:14:59.608Z,100681.38
2022-08-07T10:17:33.721Z,100682.94
2022-08-07T10:20:15.574Z,100673.41
2022-08-07T10:22:50.811Z,100670.84
2022-08-07T10:25:22.805Z,100673.91
2022-08-07T10:27:51.427Z,100669.84
2022-08-07T10:30:20.024Z,100671.88
2022-08-07T10:32:52.863Z,100673.56
2022-08-07T10:35:25.664Z,100669.91
2022-08-07T10:38:09.896Z,100667.53
2022-08-07T10:40:41.311Z,100653.28
2022-08-07T10:43:09.658Z,100656.28
2022-08-07T10:45:44.434Z,100662.00
2022-08-07T10:48:16.284Z,100665.84
2022-08-07T10:50:49.855Z,100650.25
2022-08-07T10:53:21.563Z,100656.41
2022-08-07T10:55:50.747Z,100651.47
2022-08-07T10:58:32.030Z,100653.94
2022-08-07T11:01:11.348Z,100634.94
2022-08-07T11:03:52.652Z,100637.41
2022-08-07T11:06:26.715Z,100625.06
2022-08-07T11:08:54.712Z,100627.69
2022-08-07T11:11:23.815Z,100619.78
2022-08-07T11:14:44.699Z,100615.03
2022-08-07T11:16:39.491Z,100620.28
2022-08-07T11:19:08.708Z,100613.44
2022-08-07T11:21:40.752Z,100615.25
2022-08-07T11:24:10.644Z,100611.16
2022-08-07T11:26:48.290Z,100605.41
2022-08-07T11:29:43.539Z,100610.66
2022-08-07T11:32:05.769Z,100608.56
2022-08-07T11:34:34.760Z,100607.50
2022-08-07T11:37:02.916Z,100610.91
2022-08-07T11:39:59.240Z,100610.34
2022-08-07T11:42:18.899Z,100599.59
2022-08-07T11:44:52.391Z,100603.25
2022-08-07T11:47:26.185Z,100593.25
2022-08-07T11:50:32.301Z,100602.72
2022-08-07T11:52:54.973Z,100599.09
2022-08-07T11:56:18.457Z,100599.31
2022-08-07T11:58:13.153Z,100602.69
2022-08-07T12:00:48.879Z,100601.84
2022-08-07T12:03:41.753Z,100611.03
2022-08-07T12:06:38.955Z,100611.25
2022-08-07T12:09:01.280Z,100595.94
2022-08-07T12:11:32.519Z,100592.84
2022-08-07T12:14:00.398Z,100589.19
2022-08-07T12:16:30.034Z,100593.31
2022-08-07T12:18:58.550Z,100593.84
2022-08-07T12:22:36.615Z,100590.75
2022-08-07T12:24:38.539Z,100580.72
2022-08-07T12:27:04.107Z,100581.78
2022-08-07T12:29:42.704Z,100582.88
2022-08-07T12:32:13.105Z,100576.16
2022-08-07T12:34:41.045Z,100566.03
2022-08-07T12:37:16.882Z,100573.94
2022-08-07T12:39:51.715Z,100568.97
2022-08-07T12:42:27.286Z,100570.38
2022-08-07T12:44:56.027Z,100564.78
2022-08-07T12:47:27.063Z,100572.41
2022-08-07T12:50:04.934Z,100562.50
2022-08-07T12:52:34.265Z,100567.78
2022-08-07T12:55:05.685Z,100569.19
2022-08-07T12:57:59.466Z,100560.38
2022-08-07T13:00:32.886Z,100557.97
2022-08-07T13:03:07.018Z,100554.91
2022-08-07T13:06:04.113Z,100553.47
2022-08-07T13:08:23.069Z,100550.88
2022-08-07T13:10:55.911Z,100551.22
2022-08-07T13:13:47.959Z,100550.41
2022-08-07T13:16:13.111Z,100549.34
2022-08-07T13:18:44.500Z,100544.88
2022-08-07T13:21:12.439Z,100548.00
2022-08-07T13:24:01.797Z,100545.09
2022-08-07T13:26:29.463Z,100544.94
2022-08-07T13:28:58.417Z,100545.34
2022-08-07T13:31:32.016Z,100541.41
2022-08-07T13:34:30.190Z,100548.16
2022-08-07T13:36:48.682Z,100536.53
2022-08-07T13:39:49.178Z,100538.41
2022-08-07T13:42:03.993Z,100537.44
2022-08-07T13:44:36.790Z,100536.88
2022-08-07T13:47:09.424Z,100538.69
2022-08-07T13:50:32.956Z,100532.66
2022-08-07T13:52:32.305Z,100524.38
2022-08-07T13:55:04.131Z,100514.13
2022-08-07T13:57:38.046Z,100515.69
2022-08-07T14:00:07.966Z,100517.28
2022-08-07T14:02:51.027Z,100512.03
2022-08-07T14:05:22.079Z,100516.22
2022-08-07T14:08:00.971Z,100508.09
2022-08-07T14:10:29.435Z,100505.28
2022-08-07T14:13:00.572Z,100506.34
2022-08-07T14:15:31.959Z,100509.97
2022-08-07T14:18:23.990Z,100509.56
2022-08-07T14:20:54.748Z,100504.31
2022-08-07T14:23:58.864Z,100496.59
2022-08-07T14:26:10.291Z,100504.50
2022-08-07T14:29:01.192Z,100502.25
2022-08-07T14:31:43.060Z,100502.19
2022-08-07T14:34:25.837Z,100494.63
2022-08-07T14:36:56.839Z,100501.75
2022-08-07T14:40:18.277Z,100500.53
2022-08-07T14:42:18.609Z,100487.44
2022-08-07T14:44:49.813Z,100486.34
2022-08-07T14:47:19.608Z,100491.03
2022-08-07T14:49:57.039Z,100489.69
2022-08-07T14:52:28.904Z,100490.13
2022-08-07T14:54:56.798Z,100480.91
2022-08-07T15:00:20.876Z,100478.25
2022-08-07T15:02:57.970Z,100478.66
2022-08-07T15:05:25.653Z,100472.38
2022-08-07T15:07:54.173Z,100474.38
2022-08-07T15:10:26.267Z,100471.84
2022-08-07T15:12:58.002Z,100467.84
2022-08-07T15:15:25.949Z,100471.69
2022-08-07T15:17:55.571Z,100461.78
2022-08-07T15:20:32.530Z,100466.03
2022-08-07T15:23:17.068Z,100466.88
2022-08-07T15:25:48.501Z,100467.69
2022-08-07T15:28:35.077Z,100468.00
2022-08-07T15:33:51.836Z,100461.31
2022-08-07T15:37:02.746Z,100471.88
2022-08-07T15:44:42.986Z,100462.66
2022-08-07T15:47:20.524Z,100459.84
2022-08-07T15:50:04.422Z,100454.03
2022-08-07T15:52:34.320Z,100452.41
2022-08-07T15:55:08.947Z,100445.19
2022-08-07T15:57:40.028Z,100450.75
2022-08-07T16:00:31.011Z,100448.81
2022-08-07T16:03:01.707Z,100446.84
2022-08-07T16:05:31.382Z,100437.75
2022-08-07T16:08:30.889Z,100435.44
2022-08-07T16:10:48.612Z,100436.19
2022-08-07T16:13:18.131Z,100428.63
2022-08-07T16:16:06.892Z,100427.69
2022-08-07T16:18:52.645Z,100432.75
2022-08-07T16:22:01.835Z,100430.47
2022-08-07T16:24:09.115Z,100428.22
2022-08-07T16:26:59.414Z,100426.56
2022-08-07T16:30:09.869Z,100426.44
2022-08-07T16:32:33.119Z,100424.78
2022-08-07T16:35:03.249Z,100425.19
2022-08-07T16:38:06.926Z,100426.06
2022-08-07T16:40:37.485Z,100433.22
2022-08-07T16:43:25.088Z,100438.22
2022-08-07T16:47:03.030Z,100426.06
2022-08-07T16:50:26.872Z,100427.72
2022-08-07T16:51:54.306Z,100425.19
2022-08-07T16:54:36.155Z,100433.56
2022-08-07T16:57:04.684Z,100433.50
2022-08-07T16:59:46.556Z,100435.53
2022-08-07T17:02:15.260Z,100444.19
2022-08-07T17:05:02.863Z,100444.63
2022-08-07T17:07:55.562Z,100441.22
2022-08-07T17:10:32.230Z,100447.81
2022-08-07T17:13:01.221Z,100440.53
2022-08-07T17:15:44.684Z,100439.91
2022-08-07T17:18:18.642Z,100436.97
2022-08-07T17:20:46.668Z,100441.16
2022-08-07T17:23:14.480Z,100442.84
2022-08-07T17:25:51.348Z,100439.84
2022-08-07T17:28:22.346Z,100438.78
2022-08-07T17:30:59.057Z,100429.31
2022-08-07T17:34:09.780Z,100431.81
2022-08-07T17:36:20.834Z,100438.06
2022-08-07T17:38:50.256Z,100443.06
2022-08-07T17:42:04.811Z,100433.75
2022-08-07T17:44:13.718Z,100437.91
2022-08-07T17:46:44.089Z,100439.13
2022-08-07T17:49:12.151Z,100436.56
2022-08-07T17:52:00.657Z,100438.81
2022-08-07T17:54:29.621Z,100441.25
2022-08-07T17:57:18.402Z,100438.69
2022-08-07T17:59:46.782Z,100442.59
2022-08-07T18:02:23.258Z,100440.00
2022-08-07T18:04:54.904Z,100442.88
2022-08-07T18:07:28.435Z,100443.03
2022-08-07T18:10:06.002Z,100450.50
2022-08-07T18:12:34.831Z,100451.50
2022-08-07T18:15:02.699Z,100455.19
2022-08-07T18:18:45.173Z,100451.78
2022-08-07T18:21:02.656Z,100450.88
2022-08-07T18:23:42.601Z,100454.31
2022-08-07T18:26:01.078Z,100460.72
2022-08-07T18:28:34.025Z,100465.69
2022-08-07T18:31:02.437Z,100464.81
2022-08-07T18:33:30.144Z,100471.03
2022-08-07T18:35:57.900Z,100472.44
2022-08-07T18:38:58.809Z,100476.75
2022-08-07T18:41:16.724Z,100476.69
2022-08-07T18:43:48.927Z,100474.91
2022-08-07T18:46:26.027Z,100483.84
2022-08-07T18:50:05.463Z,100481.03
2022-08-07T18:52:38.774Z,100483.00
2022-08-07T18:54:31.583Z,100488.34
2022-08-07T18:57:29.300Z,100485.91
2022-08-07T18:59:59.047Z,100497.91
2022-08-07T19:02:36.577Z,100507.00
2022-08-07T19:05:14.837Z,100491.63
2022-08-07T19:07:51.986Z,100498.81
2022-08-07T19:10:31.263Z,100500.59
2022-08-07T19:13:11.769Z,100508.81
2022-08-07T19:16:04.697Z,100510.31
2022-08-07T19:18:34.619Z,100516.97
2022-08-07T19:21:09.788Z,100514.50
2022-08-07T19:23:59.340Z,100520.19
2022-08-07T19:26:29.176Z,100525.00
2022-08-07T19:31:05.816Z,100528.81
2022-08-07T19:32:07.934Z,100532.59
2022-08-07T19:34:38.747Z,100530.94
2022-08-07T19:37:10.414Z,100535.59
2022-08-07T19:39:56.657Z,100542.88
2022-08-07T19:42:31.706Z,100535.63
2022-08-07T19:45:09.477Z,100541.28
2022-08-07T19:47:38.173Z,100550.28
2022-08-07T19:50:41.562Z,100551.19
2022-08-07T19:52:58.563Z,100552.03
2022-08-07T19:55:57.296Z,100557.31
2022-08-07T19:58:15.598Z,100552.94
2022-08-07T20:00:53.990Z,100555.69
2022-08-07T20:03:35.296Z,100558.41
2022-08-07T20:06:04.529Z,100554.81
2022-08-07T20:08:32.449Z,100553.81
2022-08-07T20:11:02.131Z,100559.91
2022-08-07T20:13:32.149Z,100550.97
2022-08-07T20:16:00.043Z,100560.78
2022-08-07T20:18:33.567Z,100555.19
2022-08-07T20:21:02.540Z,100559.59
2022-08-07T20:23:33.054Z,100558.41
2022-08-07T20:26:11.147Z,100559.09
2022-08-07T20:28:39.322Z,100554.34
2022-08-07T20:31:06.985Z,100561.47
2022-08-07T20:33:38.357Z,100556.88
2022-08-07T20:36:06.445Z,100556.31
2022-08-07T20:38:34.224Z,100557.63
2022-08-07T20:41:03.777Z,100560.00
2022-08-07T20:43:33.306Z,100566.84
2022-08-07T20:46:25.873Z,100567.31
2022-08-07T20:49:54.074Z,100558.50
2022-08-07T20:51:40.697Z,100559.63
2022-08-07T20:54:29.338Z,100558.88
2022-08-07T20:56:58.106Z,100561.56
2022-08-07T21:00:05.090Z,100562.47
2022-08-07T21:02:38.237Z,100572.56
2022-08-07T21:05:16.350Z,100580.06
2022-08-07T21:07:49.567Z,100573.94
2022-08-07T21:10:17.846Z,100585.50
2022-08-07T21:12:52.949Z,100579.91
2022-08-07T21:15:21.977Z,100582.38
2022-08-07T21:18:20.267Z,100573.22
2022-08-07T21:20:57.400Z,100579.09
2022-08-07T21:23:27.574Z,100567.72
2022-08-07T21:25:56.796Z,100575.28
2022-08-07T21:28:48.516Z,100564.09
2022-08-07T21:31:15.353Z,100573.50
2022-08-07T21:33:43.069Z,100578.19
2022-08-07T21:36:11.939Z,100577.13
2022-08-07T21:38:44.377Z,100583.97
2022-08-07T21:41:13.784Z,100583.34
2022-08-07T21:43:55.653Z,100579.03
2022-08-07T21:46:24.801Z,100580.78
2022-08-07T21:48:59.852Z,100578.72
2022-08-07T21:51:27.540Z,100585.69
2022-08-07T21:53:55.270Z,100589.81
2022-08-07T21:56:37.819Z,100591.28
2022-08-07T21:59:08.266Z,100597.13
2022-08-07T22:02:11.074Z,100601.25
2022-08-07T22:04:23.688Z,100599.25
2022-08-07T22:06:52.617Z,100606.41
2022-08-07T22:09:25.892Z,100609.66
2022-08-07T22:12:06.841Z,100609.25
2022-08-07T22:14:36.493Z,100601.63
2022-08-07T22:17:05.088Z,100608.44
2022-08-07T22:19:33.608Z,100611.72
2022-08-07T22:22:17.845Z,100612.28
2022-08-07T22:24:49.467Z,100608.22
2022-08-07T22:27:18.547Z,100612.16
2022-08-07T22:29:48.319Z,100614.47
2022-08-07T22:32:20.526Z,100618.44
2022-08-07T22:34:52.871Z,100617.03
2022-08-07T22:37:21.146Z,100610.22
2022-08-07T22:39:52.924Z,100608.53
2022-08-07T22:42:25.891Z,100605.97
2022-08-07T22:44:58.852Z,100612.66
2022-08-07T22:47:27.200Z,100611.38
2022-08-07T22:49:55.516Z,100604.03
2022-08-07T22:52:37.613Z,100609.09
2022-08-07T22:55:17.314Z,100607.13
2022-08-07T22:57:50.635Z,100607.69
2022-08-07T23:00:18.282Z,100612.66
2022-08-07T23:02:49.141Z,100608.97
2022-08-07T23:06:15.507Z,100612.50
2022-08-07T23:08:04.875Z,100614.16
2022-08-07T23:10:42.547Z,100615.44
2022-08-07T23:13:11.211Z,100614.00
2022-08-07T23:16:06.215Z,100617.41
2022-08-07T23:18:31.961Z,100611.59
2022-08-07T23:20:58.898Z,100616.50
2022-08-07T23:24:04.250Z,100620.59
2022-08-07T23:26:14.231Z,100616.34
2022-08-07T23:28:53.383Z,100622.72
2022-08-07T23:32:49.105Z,100617.88
2022-08-07T23:34:35.022Z,100619.88
2022-08-07T23:37:20.129Z,100618.31
2022-08-07T23:39:47.036Z,100623.94
2022-08-07T23:42:24.613Z,100627.63
2022-08-07T23:44:58.065Z,100628.47
2022-08-07T23:47:25.812Z,100622.09
2022-08-07T23:49:57.912Z,100627.34
2022-08-07T23:53:01.317Z,100630.88
2022-08-07T23:55:51.946Z,100631.31
2022-08-07T23:58:01.952Z,100630.13
